Time,TemperatureF,DewpointF,PressureIn,WindDirection,WindDirectionDegrees,WindSpeedMPH,WindSpeedGustMPH,Humidity,HourlyPrecipIn,Conditions,Clouds,dailyrainin,SoftwareType,DateUTC
2013-03-10 00:00:00,34.7,32.4,30.36,ENE,72,2.0,3.0,91,0.00,,,0.00,meteohub,2013-03-10 05:00:00,
2013-03-10 00:01:00,34.7,32.4,30.36,East,96,1.0,3.0,91,0.00,,,0.00,meteohub,2013-03-10 05:01:00,
2013-03-10 00:06:00,34.5,32.2,30.37,East,96,0.0,5.0,91,0.00,,,0.00,meteohub,2013-03-10 05:06:00,
2013-03-10 00:11:00,34.3,32.0,30.37,East,96,0.0,5.0,91,0.00,,,0.00,meteohub,2013-03-10 05:11:00,
2013-03-10 00:16:00,34.3,32.0,30.37,East,96,0.0,5.0,91,0.00,,,0.00,meteohub,2013-03-10 05:16:00,
2013-03-10 00:21:00,34.2,31.8,30.37,East,96,1.0,3.0,91,0.00,,,0.00,meteohub,2013-03-10 05:21:00,
2013-03-10 00:26:00,34.2,31.8,30.37,East,96,0.0,3.0,91,0.00,,,0.00,meteohub,2013-03-10 05:26:00,
2013-03-10 00:31:00,34.0,31.6,30.37,East,96,1.0,2.0,91,0.00,,,0.00,meteohub,2013-03-10 05:31:00,
2013-03-10 00:36:00,34.0,31.8,30.37,NE,54,0.0,2.0,92,0.00,,,0.00,meteohub,2013-03-10 05:36:00,
2013-03-10 00:41:00,33.8,31.6,30.38,East,85,1.0,2.0,92,0.00,,,0.00,meteohub,2013-03-10 05:41:00,
2013-03-10 00:46:00,34.0,31.8,30.38,East,99,1.0,5.0,92,0.00,,,0.00,meteohub,2013-03-10 05:46:00,
2013-03-10 00:52:00,34.0,31.8,30.38,ESE,105,2.0,5.0,92,0.00,,,0.00,meteohub,2013-03-10 05:52:00,
2013-03-10 00:57:00,34.3,32.2,30.38,ESE,103,1.0,5.0,92,0.00,,,0.00,meteohub,2013-03-10 05:57:00,
2013-03-10 01:02:00,34.3,32.2,30.38,ENE,69,3.0,5.0,92,0.00,,,0.00,meteohub,2013-03-10 06:02:00,
2013-03-10 01:07:00,34.5,32.4,30.38,ESE,112,3.0,5.0,92,0.00,,,0.00,meteohub,2013-03-10 06:07:00,
2013-03-10 01:12:00,34.9,32.7,30.38,East,97,1.0,5.0,92,0.00,,,0.00,meteohub,2013-03-10 06:12:00,
2013-03-10 01:17:00,34.9,32.7,30.38,East,96,2.0,7.0,92,0.00,,,0.00,meteohub,2013-03-10 06:17:00,
2013-03-10 01:22:00,35.1,32.9,30.38,East,90,3.0,7.0,92,0.00,,,0.00,meteohub,2013-03-10 06:22:00,
2013-03-10 01:27:00,35.1,32.9,30.38,East,84,3.0,5.0,92,0.00,,,0.00,meteohub,2013-03-10 06:27:00,
2013-03-10 01:32:00,35.2,32.9,30.38,East,96,1.0,6.0,91,0.00,,,0.00,meteohub,2013-03-10 06:32:00,
2013-03-10 01:37:00,35.4,33.1,30.38,ENE,71,1.0,6.0,91,0.00,,,0.00,meteohub,2013-03-10 06:37:00,
2013-03-10 01:42:00,35.6,33.3,30.38,ESE,113,2.0,6.0,91,0.00,,,0.00,meteohub,2013-03-10 06:42:00,
2013-03-10 01:47:00,35.8,33.4,30.38,East,101,5.0,7.0,91,0.00,,,0.00,meteohub,2013-03-10 06:47:00,
2013-03-10 01:52:00,36.0,33.6,30.38,East,82,8.0,8.0,91,0.00,,,0.00,meteohub,2013-03-10 06:52:00,
2013-03-10 01:57:00,36.1,33.4,30.38,East,84,8.0,10.0,90,0.00,,,0.00,meteohub,2013-03-10 06:57:00,
2013-03-10 03:02:00,36.3,33.4,30.38,ENE,76,5.0,-999.0,89,-99.99,,,0.00,meteohub,2013-03-10 07:02:00,
2013-03-10 03:07:00,36.5,33.3,30.38,ESE,123,5.0,-999.0,88,-99.99,,,0.00,meteohub,2013-03-10 07:07:00,
2013-03-10 03:12:00,36.7,33.4,30.38,ENE,71,1.0,-999.0,88,-99.99,,,0.00,meteohub,2013-03-10 07:12:00,
2013-03-10 03:17:00,36.7,33.3,30.38,East,92,1.0,-999.0,87,-99.99,,,0.00,meteohub,2013-03-10 07:17:00,
2013-03-10 03:22:00,36.7,33.3,30.37,ENE,72,7.0,-999.0,87,-99.99,,,0.00,meteohub,2013-03-10 07:22:00,
2013-03-10 03:27:00,36.7,32.9,30.37,ESE,116,4.0,-999.0,86,-99.99,,,0.00,meteohub,2013-03-10 07:27:00,
2013-03-10 03:32:00,36.7,32.5,30.38,ESE,117,5.0,-999.0,85,-99.99,,,0.00,meteohub,2013-03-10 07:32:00,
2013-03-10 03:37:00,36.7,32.9,30.38,SE,129,4.0,-999.0,86,-99.99,,,0.00,meteohub,2013-03-10 07:37:00,
2013-03-10 03:42:00,36.7,32.9,30.38,East,98,7.0,-999.0,86,-99.99,,,0.00,meteohub,2013-03-10 07:42:00,
2013-03-10 03:47:00,36.7,32.9,30.38,ESE,119,2.0,-999.0,86,-99.99,,,0.00,meteohub,2013-03-10 07:47:00,
2013-03-10 03:52:00,36.7,32.9,30.38,ESE,102,3.0,-999.0,86,-99.99,,,0.00,meteohub,2013-03-10 07:52:00,
2013-03-10 03:57:00,36.7,32.9,30.38,ENE,67,4.0,-999.0,86,-99.99,,,0.00,meteohub,2013-03-10 07:57:00,
2013-03-10 04:02:00,36.7,32.9,30.38,ENE,69,7.0,-999.0,86,-99.99,,,0.00,meteohub,2013-03-10 08:02:00,
2013-03-10 04:07:00,36.7,32.9,30.38,ESE,109,4.0,-999.0,86,-99.99,,,0.00,meteohub,2013-03-10 08:07:00,
2013-03-10 04:12:00,36.7,32.5,30.38,NE,47,2.0,-999.0,85,-99.99,,,0.00,meteohub,2013-03-10 08:12:00,
2013-03-10 04:17:00,36.7,32.9,30.37,East,88,5.0,-999.0,86,-99.99,,,0.00,meteohub,2013-03-10 08:17:00,
2013-03-10 04:22:00,36.7,32.5,30.38,SE,125,5.0,-999.0,85,-99.99,,,0.00,meteohub,2013-03-10 08:22:00,
2013-03-10 04:27:00,36.7,32.5,30.38,ESE,109,2.0,-999.0,85,-99.99,,,0.00,meteohub,2013-03-10 08:27:00,
2013-03-10 04:32:00,36.5,32.4,30.38,East,86,2.0,-999.0,85,-99.99,,,0.00,meteohub,2013-03-10 08:32:00,
2013-03-10 04:37:00,36.5,32.4,30.38,East,101,2.0,-999.0,85,-99.99,,,0.00,meteohub,2013-03-10 08:37:00,
2013-03-10 04:42:00,36.5,32.4,30.38,East,98,6.0,-999.0,85,-99.99,,,0.00,meteohub,2013-03-10 08:42:00,
2013-03-10 04:47:00,36.7,32.5,30.39,ESE,113,5.0,-999.0,85,-99.99,,,0.00,meteohub,2013-03-10 08:47:00,
2013-03-10 04:52:00,36.5,32.4,30.39,East,79,5.0,-999.0,85,-99.99,,,0.00,meteohub,2013-03-10 08:52:00,
2013-03-10 04:57:00,36.7,32.5,30.39,East,101,3.0,-999.0,85,-99.99,,,0.00,meteohub,2013-03-10 08:57:00,
2013-03-10 05:02:00,36.7,32.4,30.39,East,92,2.0,-999.0,84,-99.99,,,0.00,meteohub,2013-03-10 09:02:00,
2013-03-10 05:07:00,36.7,32.5,30.39,East,88,5.0,-999.0,85,-99.99,,,0.00,meteohub,2013-03-10 09:07:00,
2013-03-10 05:12:00,36.7,32.4,30.39,ENE,70,4.0,-999.0,84,-99.99,,,0.00,meteohub,2013-03-10 09:12:00,
2013-03-10 05:17:00,36.7,32.4,30.39,East,90,6.0,-999.0,84,-99.99,,,0.00,meteohub,2013-03-10 09:17:00,
2013-03-10 05:22:00,36.7,32.4,30.39,East,85,6.0,-999.0,84,-99.99,,,0.00,meteohub,2013-03-10 09:22:00,
2013-03-10 05:27:00,36.7,32.4,30.39,East,83,5.0,-999.0,84,-99.99,,,0.00,meteohub,2013-03-10 09:27:00,
2013-03-10 05:32:00,36.7,32.4,30.40,East,82,1.0,-999.0,84,-99.99,,,0.00,meteohub,2013-03-10 09:32:00,
2013-03-10 05:37:00,36.7,32.4,30.40,SE,130,4.0,-999.0,84,-99.99,,,0.00,meteohub,2013-03-10 09:37:00,
2013-03-10 05:42:00,36.3,32.0,30.40,ESE,113,10.0,-999.0,84,-99.99,,,0.00,meteohub,2013-03-10 09:42:00,
2013-03-10 05:47:00,36.3,32.0,30.40,ESE,116,3.0,-999.0,84,-99.99,,,0.00,meteohub,2013-03-10 09:47:00,
2013-03-10 05:52:00,36.3,32.0,30.40,East,98,3.0,-999.0,84,-99.99,,,0.00,meteohub,2013-03-10 09:52:00,
2013-03-10 05:57:00,36.3,32.0,30.40,East,80,3.0,-999.0,84,-99.99,,,0.00,meteohub,2013-03-10 09:57:00,
2013-03-10 06:02:00,36.3,32.2,30.40,WSW,244,3.0,-999.0,85,-99.99,,,0.00,meteohub,2013-03-10 10:02:00,
2013-03-10 06:07:00,36.3,32.2,30.40,East,86,3.0,-999.0,85,-99.99,,,0.00,meteohub,2013-03-10 10:07:00,
2013-03-10 06:12:00,36.3,32.2,30.40,ESE,123,3.0,-999.0,85,-99.99,,,0.00,meteohub,2013-03-10 10:12:00,
2013-03-10 06:17:00,36.3,32.2,30.40,East,81,2.0,-999.0,85,-99.99,,,0.00,meteohub,2013-03-10 10:17:00,
2013-03-10 06:22:00,36.1,32.0,30.40,SE,125,6.0,-999.0,85,-99.99,,,0.00,meteohub,2013-03-10 10:22:00,
2013-03-10 06:27:00,36.1,32.0,30.40,East,83,6.0,-999.0,85,-99.99,,,0.00,meteohub,2013-03-10 10:27:00,
2013-03-10 06:32:00,36.1,32.0,30.40,NE,54,3.0,-999.0,85,-99.99,,,0.00,meteohub,2013-03-10 10:32:00,
2013-03-10 06:37:00,36.1,32.0,30.41,East,84,3.0,-999.0,85,-99.99,,,0.00,meteohub,2013-03-10 10:37:00,
2013-03-10 06:42:00,36.0,31.8,30.41,ESE,103,1.0,-999.0,85,-99.99,,,0.00,meteohub,2013-03-10 10:42:00,
2013-03-10 06:47:00,36.0,31.6,30.41,ESE,103,2.0,-999.0,84,-99.99,,,0.00,meteohub,2013-03-10 10:47:00,
2013-03-10 06:52:00,36.0,31.6,30.41,ESE,113,1.0,-999.0,84,-99.99,,,0.00,meteohub,2013-03-10 10:52:00,
2013-03-10 06:57:00,36.0,31.8,30.41,East,82,3.0,-999.0,85,-99.99,,,0.00,meteohub,2013-03-10 10:57:00,
2013-03-10 07:02:00,36.0,31.8,30.41,East,90,5.0,-999.0,85,-99.99,,,0.00,meteohub,2013-03-10 11:02:00,
2013-03-10 07:07:00,36.0,31.8,30.41,ESE,118,4.0,-999.0,85,-99.99,,,0.00,meteohub,2013-03-10 11:07:00,
2013-03-10 07:12:00,36.0,31.8,30.41,East,98,3.0,-999.0,85,-99.99,,,0.00,meteohub,2013-03-10 11:12:00,
2013-03-10 07:17:00,36.0,31.8,30.41,ENE,76,4.0,8.0,85,-99.99,,,0.00,meteohub,2013-03-10 11:17:00,
2013-03-10 07:22:00,36.0,31.8,30.41,ENE,70,1.0,8.0,85,-99.99,,,0.00,meteohub,2013-03-10 11:22:00,
2013-03-10 07:27:00,36.0,31.8,30.41,ENE,74,5.0,8.0,85,-99.99,,,0.00,meteohub,2013-03-10 11:27:00,
2013-03-10 07:32:00,36.0,31.8,30.41,ENE,78,2.0,6.0,85,-99.99,,,0.00,meteohub,2013-03-10 11:32:00,
2013-03-10 07:37:00,36.0,31.8,30.42,East,88,5.0,8.0,85,-99.99,,,0.00,meteohub,2013-03-10 11:37:00,
2013-03-10 07:42:00,36.1,32.0,30.41,ESE,113,3.0,8.0,85,-99.99,,,0.00,meteohub,2013-03-10 11:42:00,
2013-03-10 07:47:00,36.1,32.0,30.42,ESE,111,2.0,9.0,85,-99.99,,,0.00,meteohub,2013-03-10 11:47:00,
2013-03-10 07:52:00,36.1,31.8,30.42,East,83,9.0,9.0,84,-99.99,,,0.00,meteohub,2013-03-10 11:52:00,
2013-03-10 07:57:00,36.3,32.0,30.42,ENE,77,3.0,9.0,84,-99.99,,,0.00,meteohub,2013-03-10 11:57:00,
2013-03-10 08:03:00,36.3,32.0,30.42,East,82,2.0,9.0,84,0.00,,,0.00,meteohub,2013-03-10 12:03:00,
2013-03-10 08:08:00,36.3,32.0,30.42,East,97,1.0,9.0,84,0.00,,,0.00,meteohub,2013-03-10 12:08:00,
2013-03-10 08:13:00,36.5,32.4,30.42,ENE,71,2.0,8.0,85,0.00,,,0.00,meteohub,2013-03-10 12:13:00,
2013-03-10 08:18:00,36.7,32.4,30.42,ENE,71,8.0,8.0,84,0.00,,,0.00,meteohub,2013-03-10 12:18:00,
2013-03-10 08:23:00,36.7,32.4,30.42,SSE,148,3.0,10.0,84,0.00,,,0.00,meteohub,2013-03-10 12:23:00,
2013-03-10 08:28:00,36.9,32.5,30.43,East,79,9.0,10.0,84,0.00,,,0.00,meteohub,2013-03-10 12:28:00,
2013-03-10 08:33:00,36.9,32.5,30.43,ENE,58,4.0,10.0,84,0.00,,,0.00,meteohub,2013-03-10 12:33:00,
2013-03-10 08:38:00,37.0,32.7,30.43,ESE,113,7.0,10.0,84,0.00,,,0.00,meteohub,2013-03-10 12:38:00,
2013-03-10 08:43:00,37.0,32.7,30.43,East,101,5.0,10.0,84,0.00,,,0.00,meteohub,2013-03-10 12:43:00,
2013-03-10 08:48:00,37.2,32.9,30.43,East,95,5.0,8.0,84,0.00,,,0.00,meteohub,2013-03-10 12:48:00,
2013-03-10 08:53:00,37.2,32.9,30.43,ESE,116,2.0,10.0,84,0.00,,,0.00,meteohub,2013-03-10 12:53:00,
2013-03-10 08:58:00,37.2,32.5,30.43,East,82,3.0,10.0,83,0.00,,,0.00,meteohub,2013-03-10 12:58:00,
2013-03-10 09:03:00,37.4,32.7,30.43,ENE,60,3.0,9.0,83,0.00,,,0.00,meteohub,2013-03-10 13:03:00,
2013-03-10 09:09:00,37.6,32.9,30.43,East,79,2.0,9.0,83,0.00,,,0.00,meteohub,2013-03-10 13:09:00,
2013-03-10 09:14:00,37.6,32.9,30.43,East,99,6.0,9.0,83,0.00,,,0.00,meteohub,2013-03-10 13:14:00,
2013-03-10 09:19:00,37.6,32.9,30.43,ESE,121,3.0,9.0,83,0.00,,,0.00,meteohub,2013-03-10 13:19:00,
2013-03-10 09:24:00,37.8,32.7,30.43,East,87,0.0,9.0,82,0.00,,,0.00,meteohub,2013-03-10 13:24:00,
2013-03-10 09:29:00,37.9,33.3,30.43,East,93,6.0,8.0,83,0.00,,,0.00,meteohub,2013-03-10 13:29:00,
2013-03-10 09:34:00,37.9,33.3,30.43,ENE,78,4.0,8.0,83,0.00,,,0.00,meteohub,2013-03-10 13:34:00,
2013-03-10 09:39:00,37.9,33.3,30.43,ESE,115,7.0,8.0,83,0.00,,,0.00,meteohub,2013-03-10 13:39:00,
2013-03-10 09:44:00,37.9,33.3,30.43,East,96,8.0,8.0,83,0.00,,,0.00,meteohub,2013-03-10 13:44:00,
2013-03-10 09:49:00,37.9,32.9,30.43,ENE,69,2.0,10.0,82,0.00,,,0.00,meteohub,2013-03-10 13:49:00,
2013-03-10 09:54:00,37.9,32.9,30.44,SSW,206,4.0,13.0,82,0.00,,,0.00,meteohub,2013-03-10 13:54:00,
2013-03-10 09:59:00,38.1,33.1,30.44,SE,144,1.0,13.0,82,0.00,,,0.00,meteohub,2013-03-10 13:59:00,
2013-03-10 10:04:00,38.5,33.4,30.44,SW,225,2.0,13.0,82,0.00,,,0.00,meteohub,2013-03-10 14:04:00,
2013-03-10 10:09:00,38.7,33.3,30.44,ENE,61,7.0,10.0,81,0.00,,,0.00,meteohub,2013-03-10 14:09:00,
2013-03-10 10:14:00,38.7,33.3,30.44,ENE,63,3.0,7.0,81,0.00,,,0.00,meteohub,2013-03-10 14:14:00,
2013-03-10 10:19:00,38.5,32.9,30.44,East,85,5.0,7.0,80,0.00,,,0.00,meteohub,2013-03-10 14:19:00,
2013-03-10 10:25:00,38.3,32.9,30.44,East,87,5.0,10.0,81,0.00,,,0.00,meteohub,2013-03-10 14:25:00,
2013-03-10 10:30:00,38.5,33.1,30.44,ESE,107,5.0,10.0,81,0.00,,,0.00,meteohub,2013-03-10 14:30:00,
2013-03-10 10:35:00,38.7,33.1,30.44,ENE,75,3.0,10.0,80,0.00,,,0.00,meteohub,2013-03-10 14:35:00,
2013-03-10 10:40:00,38.7,33.1,30.44,ENE,69,1.0,12.0,80,0.00,,,0.00,meteohub,2013-03-10 14:40:00,
2013-03-10 10:45:00,39.0,33.4,30.44,ENE,68,3.0,12.0,80,0.00,,,0.00,meteohub,2013-03-10 14:45:00,
2013-03-10 10:50:00,39.4,33.8,30.44,ESE,119,1.0,7.0,80,0.00,,,0.00,meteohub,2013-03-10 14:50:00,
2013-03-10 10:55:00,38.7,33.1,30.44,NE,54,2.0,10.0,80,0.00,,,0.00,meteohub,2013-03-10 14:55:00,
2013-03-10 11:00:00,38.7,33.1,30.45,East,93,6.0,10.0,80,0.00,,,0.00,meteohub,2013-03-10 15:00:00,
2013-03-10 11:05:00,38.7,33.3,30.45,ESE,121,4.0,10.0,81,0.00,,,0.00,meteohub,2013-03-10 15:05:00,
2013-03-10 11:10:00,38.8,33.4,30.45,East,89,3.0,10.0,81,0.00,,,0.00,meteohub,2013-03-10 15:10:00,
2013-03-10 11:15:00,38.8,33.3,30.45,ESE,111,4.0,11.0,80,0.00,,,0.00,meteohub,2013-03-10 15:15:00,
2013-03-10 11:20:00,38.8,33.3,30.45,East,79,9.0,11.0,80,0.00,,,0.00,meteohub,2013-03-10 15:20:00,
2013-03-10 11:25:00,38.8,32.9,30.45,East,94,1.0,11.0,79,0.00,,,0.00,meteohub,2013-03-10 15:25:00,
2013-03-10 11:30:00,39.0,33.4,30.45,ESE,107,2.0,9.0,80,0.00,,,0.00,meteohub,2013-03-10 15:30:00,
2013-03-10 11:35:00,39.2,33.3,30.45,East,84,7.0,9.0,79,0.00,,,0.00,meteohub,2013-03-10 15:35:00,
2013-03-10 11:41:00,39.0,33.1,30.45,East,98,7.0,8.0,79,0.00,,,0.00,meteohub,2013-03-10 15:41:00,
2013-03-10 11:46:00,39.0,33.1,30.46,ENE,77,4.0,9.0,79,0.00,,,0.00,meteohub,2013-03-10 15:46:00,
2013-03-10 11:51:00,39.0,33.1,30.45,East,91,2.0,9.0,79,0.00,,,0.00,meteohub,2013-03-10 15:51:00,
2013-03-10 11:56:00,38.8,32.9,30.45,ESE,107,7.0,9.0,79,0.00,,,0.00,meteohub,2013-03-10 15:56:00,
2013-03-10 12:01:00,39.0,33.4,30.45,ENE,71,4.0,9.0,80,0.00,,,0.00,meteohub,2013-03-10 16:01:00,
2013-03-10 12:06:00,38.8,32.9,30.45,East,101,3.0,12.0,79,0.00,,,0.00,meteohub,2013-03-10 16:06:00,
2013-03-10 12:11:00,38.8,33.3,30.45,ENE,69,4.0,12.0,80,0.00,,,0.00,meteohub,2013-03-10 16:11:00,
2013-03-10 12:16:00,38.8,32.9,30.45,East,86,3.0,12.0,79,0.00,,,0.00,meteohub,2013-03-10 16:16:00,
2013-03-10 12:21:00,38.8,33.3,30.45,ENE,72,3.0,9.0,80,0.00,,,0.00,meteohub,2013-03-10 16:21:00,
2013-03-10 12:26:00,39.0,33.1,30.45,ENE,74,4.0,9.0,79,0.00,,,0.00,meteohub,2013-03-10 16:26:00,
2013-03-10 12:32:00,39.0,33.1,30.45,East,83,5.0,9.0,79,0.00,,,0.00,meteohub,2013-03-10 16:32:00,
2013-03-10 12:37:00,38.8,32.9,30.45,ENE,74,5.0,11.0,79,0.00,,,0.00,meteohub,2013-03-10 16:37:00,
2013-03-10 12:42:00,39.0,33.4,30.44,East,83,3.0,11.0,80,0.00,,,0.00,meteohub,2013-03-10 16:42:00,
2013-03-10 12:47:00,39.2,33.6,30.44,SSW,208,2.0,11.0,80,0.00,,,0.00,meteohub,2013-03-10 16:47:00,
2013-03-10 12:52:00,39.6,33.6,30.44,ENE,73,4.0,8.0,79,0.00,,,0.00,meteohub,2013-03-10 16:52:00,
2013-03-10 12:57:00,39.6,33.6,30.44,SSW,206,2.0,8.0,79,0.00,,,0.00,meteohub,2013-03-10 16:57:00,
2013-03-10 13:02:00,39.4,33.4,30.44,SW,221,4.0,8.0,79,0.00,,,0.00,meteohub,2013-03-10 17:02:00,
2013-03-10 13:07:00,39.4,33.4,30.44,East,86,5.0,8.0,79,0.00,,,0.00,meteohub,2013-03-10 17:07:00,
2013-03-10 13:12:00,39.4,33.1,30.44,East,92,3.0,10.0,78,0.00,,,0.00,meteohub,2013-03-10 17:12:00,
2013-03-10 13:17:00,39.6,33.6,30.44,NE,53,3.0,10.0,79,0.00,,,0.00,meteohub,2013-03-10 17:17:00,
2013-03-10 13:22:00,39.6,33.3,30.44,East,100,6.0,10.0,78,0.00,,,0.00,meteohub,2013-03-10 17:22:00,
2013-03-10 13:27:00,39.4,33.1,30.43,ENE,72,2.0,13.0,78,0.00,,,0.00,meteohub,2013-03-10 17:27:00,
2013-03-10 13:32:00,39.9,34.0,30.43,WSW,245,4.0,13.0,79,0.00,,,0.00,meteohub,2013-03-10 17:32:00,
2013-03-10 13:37:00,40.3,33.3,30.43,ESE,117,1.0,13.0,76,0.00,,,0.00,meteohub,2013-03-10 17:37:00,
2013-03-10 13:42:00,40.6,33.6,30.43,East,88,7.0,9.0,76,0.00,,,0.00,meteohub,2013-03-10 17:42:00,
2013-03-10 13:47:00,40.3,33.1,30.43,East,82,8.0,9.0,75,0.00,,,0.00,meteohub,2013-03-10 17:47:00,
2013-03-10 13:52:00,40.5,33.4,30.43,ESE,113,4.0,9.0,76,0.00,,,0.00,meteohub,2013-03-10 17:52:00,
2013-03-10 13:57:00,40.6,33.3,30.43,East,95,5.0,8.0,75,0.00,,,0.00,meteohub,2013-03-10 17:57:00,
2013-03-10 14:02:00,40.5,33.4,30.42,South,190,3.0,8.0,76,0.00,,,0.00,meteohub,2013-03-10 18:02:00,
2013-03-10 14:07:00,40.3,33.1,30.42,SW,230,2.0,8.0,75,0.00,,,0.00,meteohub,2013-03-10 18:07:00,
2013-03-10 14:12:00,40.5,33.4,30.42,ESE,102,1.0,9.0,76,0.00,,,0.00,meteohub,2013-03-10 18:12:00,
2013-03-10 14:17:00,40.8,33.3,30.42,East,88,1.0,9.0,74,0.00,,,0.00,meteohub,2013-03-10 18:17:00,
2013-03-10 14:22:00,40.3,33.3,30.42,East,93,6.0,10.0,76,0.00,,,0.00,meteohub,2013-03-10 18:22:00,
2013-03-10 14:27:00,40.5,33.4,30.42,East,92,3.0,10.0,76,0.00,,,0.00,meteohub,2013-03-10 18:27:00,
2013-03-10 14:32:00,40.6,33.6,30.42,East,86,5.0,11.0,76,0.00,,,0.00,meteohub,2013-03-10 18:32:00,
2013-03-10 14:37:00,40.3,33.3,30.42,ENE,70,3.0,11.0,76,0.00,,,0.00,meteohub,2013-03-10 18:37:00,
2013-03-10 14:42:00,40.3,33.3,30.42,ESE,105,3.0,11.0,76,0.00,,,0.00,meteohub,2013-03-10 18:42:00,
2013-03-10 14:47:00,40.8,34.2,30.41,ESE,113,3.0,11.0,77,0.00,,,0.00,meteohub,2013-03-10 18:47:00,
2013-03-10 14:52:00,41.2,34.2,30.41,WSW,239,3.0,11.0,76,0.00,,,0.00,meteohub,2013-03-10 18:52:00,
2013-03-10 14:57:00,41.0,34.0,30.41,SSE,158,3.0,9.0,76,0.00,,,0.00,meteohub,2013-03-10 18:57:00,
2013-03-10 15:02:00,41.2,33.8,30.41,ESE,123,3.0,9.0,75,0.00,,,0.00,meteohub,2013-03-10 19:02:00,
2013-03-10 15:07:00,40.8,33.4,30.42,ENE,75,2.0,9.0,75,0.00,,,0.00,meteohub,2013-03-10 19:07:00,
2013-03-10 15:12:00,40.5,33.1,30.42,ENE,72,4.0,9.0,75,0.00,,,0.00,meteohub,2013-03-10 19:12:00,
2013-03-10 15:17:00,40.8,33.8,30.42,ENE,73,2.0,13.0,76,0.00,,,0.00,meteohub,2013-03-10 19:17:00,
2013-03-10 15:22:00,41.2,33.8,30.42,ENE,78,5.0,13.0,75,0.00,,,0.00,meteohub,2013-03-10 19:22:00,
2013-03-10 15:27:00,40.6,33.3,30.41,ESE,110,3.0,8.0,75,0.00,,,0.00,meteohub,2013-03-10 19:27:00,
2013-03-10 15:32:00,40.6,33.6,30.41,East,92,6.0,9.0,76,0.00,,,0.00,meteohub,2013-03-10 19:32:00,
2013-03-10 15:37:00,40.6,33.6,30.41,ENE,78,1.0,9.0,76,0.00,,,0.00,meteohub,2013-03-10 19:37:00,
2013-03-10 15:42:00,40.6,33.3,30.41,ESE,122,3.0,9.0,75,0.00,,,0.00,meteohub,2013-03-10 19:42:00,
2013-03-10 15:47:00,40.8,33.8,30.41,East,94,7.0,9.0,76,0.00,,,0.00,meteohub,2013-03-10 19:47:00,
2013-03-10 15:52:00,40.6,33.3,30.41,NE,55,3.0,9.0,75,0.00,,,0.00,meteohub,2013-03-10 19:52:00,
2013-03-10 15:57:00,40.5,33.4,30.41,NE,51,1.0,8.0,76,0.00,,,0.00,meteohub,2013-03-10 19:57:00,
2013-03-10 16:02:00,40.8,33.8,30.41,SE,130,3.0,9.0,76,0.00,,,0.00,meteohub,2013-03-10 20:02:00,
2013-03-10 16:07:00,40.5,33.1,30.41,East,97,6.0,9.0,75,0.00,,,0.00,meteohub,2013-03-10 20:07:00,
2013-03-10 16:12:00,40.5,33.4,30.40,East,98,2.0,8.0,76,0.00,,,0.00,meteohub,2013-03-10 20:12:00,
2013-03-10 16:17:00,40.8,34.2,30.40,ENE,63,1.0,8.0,77,0.00,,,0.00,meteohub,2013-03-10 20:17:00,
2013-03-10 16:23:00,40.8,33.4,30.41,ENE,66,2.0,8.0,75,0.00,,,0.00,meteohub,2013-03-10 20:23:00,
2013-03-10 16:28:00,40.5,33.4,30.40,ENE,58,5.0,9.0,76,0.00,,,0.00,meteohub,2013-03-10 20:28:00,
2013-03-10 16:33:00,40.3,34.0,30.40,ENE,59,2.0,9.0,78,0.00,,,0.00,meteohub,2013-03-10 20:33:00,
2013-03-10 16:38:00,40.3,33.6,30.41,East,88,2.0,8.0,77,0.00,,,0.00,meteohub,2013-03-10 20:38:00,
2013-03-10 16:44:00,40.1,33.8,30.41,East,84,5.0,8.0,78,0.00,,,0.00,meteohub,2013-03-10 20:44:00,
2013-03-10 16:49:00,40.5,33.8,30.41,East,96,3.0,7.0,77,0.00,,,0.00,meteohub,2013-03-10 20:49:00,
2013-03-10 16:55:00,40.3,33.6,30.41,East,84,3.0,7.0,77,0.00,,,0.00,meteohub,2013-03-10 20:55:00,
2013-03-10 17:00:00,40.3,33.6,30.41,East,87,3.0,7.0,77,0.00,,,0.00,meteohub,2013-03-10 21:00:00,
2013-03-10 17:05:00,40.3,34.0,30.41,East,87,5.0,7.0,78,0.00,,,0.00,meteohub,2013-03-10 21:05:00,
2013-03-10 17:11:00,40.6,34.3,30.41,ESE,109,3.0,7.0,78,0.00,,,0.00,meteohub,2013-03-10 21:11:00,
2013-03-10 17:17:00,40.3,33.6,30.40,East,90,6.0,7.0,77,0.00,,,0.00,meteohub,2013-03-10 21:17:00,
2013-03-10 17:22:00,39.7,33.4,30.40,East,98,1.0,7.0,78,0.00,,,0.00,meteohub,2013-03-10 21:22:00,
2013-03-10 17:27:00,39.9,33.6,30.40,SSW,211,0.0,7.0,78,0.00,,,0.00,meteohub,2013-03-10 21:27:00,
2013-03-10 17:32:00,39.6,32.9,30.41,East,87,3.0,7.0,77,0.00,,,0.00,meteohub,2013-03-10 21:32:00,
2013-03-10 17:38:00,38.8,32.5,30.40,East,90,2.0,7.0,78,0.00,,,0.00,meteohub,2013-03-10 21:38:00,
2013-03-10 17:43:00,38.7,32.7,30.41,East,90,2.0,6.0,79,0.00,,,0.00,meteohub,2013-03-10 21:43:00,
2013-03-10 17:48:00,38.7,33.1,30.41,ESE,106,3.0,6.0,80,0.00,,,0.00,meteohub,2013-03-10 21:48:00,
2013-03-10 17:53:00,38.3,32.7,30.41,ESE,105,0.0,5.0,80,0.00,,,0.00,meteohub,2013-03-10 21:53:00,
2013-03-10 17:58:00,38.1,32.5,30.41,ESE,105,2.0,7.0,80,0.00,,,0.00,meteohub,2013-03-10 21:58:00,
2013-03-10 18:04:00,37.9,32.4,30.41,ENE,69,2.0,7.0,80,0.00,,,0.00,meteohub,2013-03-10 22:04:00,
2013-03-10 18:09:00,37.9,32.7,30.41,East,89,0.0,7.0,81,0.00,,,0.00,meteohub,2013-03-10 22:09:00,
2013-03-10 18:14:00,37.9,32.7,30.41,East,89,2.0,5.0,81,0.00,,,0.00,meteohub,2013-03-10 22:14:00,
2013-03-10 18:19:00,37.8,32.5,30.41,East,89,1.0,5.0,81,0.00,,,0.00,meteohub,2013-03-10 22:19:00,
2013-03-10 18:24:00,37.6,32.5,30.41,East,89,2.0,2.0,82,0.00,,,0.00,meteohub,2013-03-10 22:24:00,
2013-03-10 18:30:00,37.6,32.5,30.41,East,89,0.0,3.0,82,0.00,,,0.00,meteohub,2013-03-10 22:30:00,
2013-03-10 18:35:00,37.4,32.4,30.41,East,89,0.0,3.0,82,0.00,,,0.00,meteohub,2013-03-10 22:35:00,
2013-03-10 18:40:00,37.2,32.2,30.41,East,89,0.0,3.0,82,0.00,,,0.00,meteohub,2013-03-10 22:40:00,
2013-03-10 18:45:00,37.2,32.2,30.41,East,89,1.0,1.0,82,0.00,,,0.00,meteohub,2013-03-10 22:45:00,
2013-03-10 18:50:00,37.0,32.0,30.41,East,89,1.0,1.0,82,0.00,,,0.00,meteohub,2013-03-10 22:50:00,
2013-03-10 18:55:00,37.0,32.0,30.41,East,89,0.0,2.0,82,0.00,,,0.00,meteohub,2013-03-10 22:55:00,
2013-03-10 19:01:00,36.9,32.2,30.41,East,89,0.0,2.0,83,0.00,,,0.00,meteohub,2013-03-10 23:01:00,
2013-03-10 19:06:00,36.9,32.2,30.41,East,89,0.0,2.0,83,0.00,,,0.00,meteohub,2013-03-10 23:06:00,
2013-03-10 19:11:00,36.7,32.0,30.41,East,89,0.0,1.0,83,0.00,,,0.00,meteohub,2013-03-10 23:11:00,
2013-03-10 19:16:00,36.7,32.4,30.41,East,89,0.0,0.0,84,0.00,,,0.00,meteohub,2013-03-10 23:16:00,
2013-03-10 19:22:00,36.5,32.2,30.41,East,89,0.0,1.0,84,0.00,,,0.00,meteohub,2013-03-10 23:22:00,
2013-03-10 19:27:00,36.3,32.0,30.41,East,89,0.0,1.0,84,0.00,,,0.00,meteohub,2013-03-10 23:27:00,
2013-03-10 19:32:00,36.1,32.0,30.41,East,89,0.0,1.0,85,0.00,,,0.00,meteohub,2013-03-10 23:32:00,
2013-03-10 19:37:00,36.1,32.0,30.42,East,89,0.0,1.0,85,0.00,,,0.00,meteohub,2013-03-10 23:37:00,
2013-03-10 19:42:00,36.0,31.8,30.42,East,89,0.0,1.0,85,0.00,,,0.00,meteohub,2013-03-10 23:42:00,
2013-03-10 19:47:00,36.0,31.8,30.42,East,89,0.0,1.0,85,0.00,,,0.00,meteohub,2013-03-10 23:47:00,
2013-03-10 19:53:00,35.8,32.0,30.42,East,89,0.0,1.0,86,0.00,,,0.00,meteohub,2013-03-10 23:53:00,
2013-03-10 19:58:00,35.8,32.0,30.43,East,89,0.0,2.0,86,0.00,,,0.00,meteohub,2013-03-10 23:58:00,
2013-03-10 20:03:00,35.8,32.0,30.43,East,89,0.0,2.0,86,0.00,,,0.00,meteohub,2013-03-11 00:03:00,
2013-03-10 20:08:00,35.8,32.0,30.43,East,89,0.0,2.0,86,0.00,,,0.00,meteohub,2013-03-11 00:08:00,
2013-03-10 20:13:00,35.8,32.0,30.43,East,89,0.0,0.0,86,0.00,,,0.00,meteohub,2013-03-11 00:13:00,
2013-03-10 20:18:00,35.8,32.4,30.42,East,89,0.0,1.0,87,0.00,,,0.00,meteohub,2013-03-11 00:18:00,
2013-03-10 20:23:00,36.0,32.5,30.42,East,89,0.0,1.0,87,0.00,,,0.00,meteohub,2013-03-11 00:23:00,
2013-03-10 20:29:00,35.8,32.4,30.42,East,89,1.0,1.0,87,0.00,,,0.00,meteohub,2013-03-11 00:29:00,
2013-03-10 20:34:00,35.6,32.2,30.43,East,89,0.0,1.0,87,0.00,,,0.00,meteohub,2013-03-11 00:34:00,
2013-03-10 20:39:00,35.6,32.2,30.43,East,89,0.0,1.0,87,0.00,,,0.00,meteohub,2013-03-11 00:39:00,
2013-03-10 20:44:00,35.6,32.2,30.42,South,190,3.0,3.0,87,0.00,,,0.00,meteohub,2013-03-11 00:44:00,
2013-03-10 20:50:00,36.0,32.5,30.43,SW,222,0.0,2.0,87,0.00,,,0.00,meteohub,2013-03-11 00:50:00,
2013-03-10 20:55:00,36.1,32.7,30.42,SW,221,3.0,5.0,87,0.00,,,0.00,meteohub,2013-03-11 00:55:00,
2013-03-10 21:00:00,36.1,32.4,30.42,SW,235,3.0,5.0,86,0.00,,,0.00,meteohub,2013-03-11 01:00:00,
2013-03-10 21:05:00,36.3,32.5,30.42,SW,235,1.0,6.0,86,0.00,,,0.00,meteohub,2013-03-11 01:05:00,
2013-03-10 21:11:00,36.3,32.5,30.42,SW,235,2.0,6.0,86,0.00,,,0.00,meteohub,2013-03-11 01:11:00,
2013-03-10 21:16:00,36.3,32.5,30.42,SW,217,2.0,5.0,86,0.00,,,0.00,meteohub,2013-03-11 01:16:00,
2013-03-10 21:21:00,36.3,32.5,30.42,WSW,239,4.0,5.0,86,0.00,,,0.00,meteohub,2013-03-11 01:21:00,
2013-03-10 21:26:00,36.3,32.5,30.42,WSW,250,3.0,6.0,86,0.00,,,0.00,meteohub,2013-03-11 01:26:00,
2013-03-10 21:32:00,36.3,32.5,30.42,WSW,256,3.0,6.0,86,0.00,,,0.00,meteohub,2013-03-11 01:32:00,
2013-03-10 21:37:00,36.1,32.4,30.41,SW,215,4.0,6.0,86,0.00,,,0.00,meteohub,2013-03-11 01:37:00,
2013-03-10 21:42:00,36.1,32.4,30.41,SW,221,2.0,6.0,86,0.00,,,0.00,meteohub,2013-03-11 01:42:00,
2013-03-10 21:47:00,36.1,32.4,30.41,West,263,3.0,8.0,86,0.00,,,0.00,meteohub,2013-03-11 01:47:00,
2013-03-10 21:52:00,36.0,32.2,30.41,WSW,246,3.0,8.0,86,0.00,,,0.00,meteohub,2013-03-11 01:52:00,
2013-03-10 21:58:00,36.0,32.2,30.41,WSW,256,4.0,6.0,86,0.00,,,0.00,meteohub,2013-03-11 01:58:00,
2013-03-10 22:03:00,36.0,32.2,30.42,West,259,2.0,6.0,86,0.00,,,0.00,meteohub,2013-03-11 02:03:00,
2013-03-10 22:08:00,36.0,32.2,30.42,WSW,244,4.0,6.0,86,0.00,,,0.00,meteohub,2013-03-11 02:08:00,
2013-03-10 22:13:00,36.0,32.2,30.41,West,275,3.0,6.0,86,0.00,,,0.00,meteohub,2013-03-11 02:13:00,
2013-03-10 22:18:00,35.8,32.4,30.41,West,265,4.0,5.0,87,0.00,,,0.00,meteohub,2013-03-11 02:18:00,
2013-03-10 22:23:00,35.8,32.4,30.40,SW,227,4.0,6.0,87,0.00,,,0.00,meteohub,2013-03-11 02:23:00,
2013-03-10 22:29:00,35.8,32.4,30.40,SW,223,5.0,7.0,87,0.00,,,0.00,meteohub,2013-03-11 02:29:00,
2013-03-10 22:34:00,35.8,32.4,30.40,SSW,207,5.0,9.0,87,0.00,,,0.00,meteohub,2013-03-11 02:34:00,
2013-03-10 22:39:00,35.6,32.2,30.39,WSW,238,4.0,9.0,87,0.00,,,0.00,meteohub,2013-03-11 02:39:00,
2013-03-10 22:45:00,35.6,32.2,30.40,SW,232,1.0,9.0,87,0.00,,,0.00,meteohub,2013-03-11 02:45:00,
2013-03-10 22:50:00,35.6,32.2,30.40,NW,315,1.0,8.0,87,0.00,,,0.00,meteohub,2013-03-11 02:50:00,
2013-03-10 22:55:00,35.6,32.2,30.41,WSW,238,3.0,6.0,87,0.00,,,0.00,meteohub,2013-03-11 02:55:00,
2013-03-10 23:00:00,35.6,32.2,30.41,WSW,258,4.0,7.0,87,0.00,,,0.00,meteohub,2013-03-11 03:00:00,
2013-03-10 23:05:00,35.6,32.2,30.41,WNW,286,3.0,7.0,87,0.00,,,0.00,meteohub,2013-03-11 03:05:00,
2013-03-10 23:11:00,35.6,32.2,30.41,West,265,1.0,7.0,87,0.00,,,0.00,meteohub,2013-03-11 03:11:00,
2013-03-10 23:16:00,35.6,32.2,30.42,West,265,1.0,5.0,87,0.00,,,0.00,meteohub,2013-03-11 03:16:00,
2013-03-10 23:21:00,35.6,32.2,30.42,WSW,254,3.0,4.0,87,0.00,,,0.00,meteohub,2013-03-11 03:21:00,
2013-03-10 23:26:00,35.8,32.4,30.41,WSW,247,4.0,4.0,87,0.00,,,0.00,meteohub,2013-03-11 03:26:00,
2013-03-10 23:32:00,35.8,32.4,30.40,West,266,1.0,7.0,87,0.00,,,0.00,meteohub,2013-03-11 03:32:00,
2013-03-10 23:37:00,35.8,32.5,30.40,West,263,3.0,7.0,88,0.00,,,0.00,meteohub,2013-03-11 03:37:00,
2013-03-10 23:42:00,35.8,32.4,30.40,WSW,240,4.0,7.0,87,0.00,,,0.00,meteohub,2013-03-11 03:42:00,
2013-03-10 23:47:00,35.8,32.4,30.40,WSW,244,7.0,7.0,87,0.00,,,0.00,meteohub,2013-03-11 03:47:00,
2013-03-10 23:52:00,35.8,32.5,30.40,West,269,3.0,10.0,88,0.00,,,0.00,meteohub,2013-03-11 03:52:00,